Time;durP1;ratioP1;P1;durP2;ratioP2;P2;SDS_P1;SDS_P2;PMS_P1;PMS_P2;Temp;Humidity;BMP_temperature;BMP_pressure;BME280_temperature;BME280_humidity;BME280_pressure;Samples;Min_cycle;Max_cycle;Signal;HPM_P1;HPM_P2
2021/11/28 00:03:38;;;;;;;24.33;13.35;;;;;;;1.70;64.81;97797.84;10387687;28;20085;-65
2021/11/28 00:14:07;;;;;;;25.58;15.82;;;;;;;1.80;64.43;97801.53;10389525;28;20140;-65
2021/11/28 00:19:09;;;;;;;29.55;18.05;;;;;;;1.75;64.67;97790.66;10388370;28;20060;-65
2021/11/28 00:24:11;;;;;;;26.70;16.45;;;;;;;1.86;64.85;97796.03;10388455;28;20045;-65
2021/11/28 00:29:12;;;;;;;23.55;14.63;;;;;;;1.99;64.62;97796.97;10387328;28;20437;-65
2021/11/28 00:34:14;;;;;;;23.15;14.13;;;;;;;2.02;64.54;97794.19;10386556;28;20050;-65
2021/11/28 00:39:16;;;;;;;26.45;14.75;;;;;;;2.06;64.42;97787.94;10387360;28;20059;-65
2021/11/28 00:44:18;;;;;;;25.08;16.45;;;;;;;2.04;64.54;97792.38;10386681;28;20556;-65
2021/11/28 00:49:22;;;;;;;26.25;12.50;;;;;;;2.01;64.69;97787.41;10387214;28;20049;-65
2021/11/28 00:54:28;;;;;;;17.83;11.65;;;;;;;2.05;64.59;97788.88;10385994;28;20053;-65
2021/11/28 00:59:29;;;;;;;17.52;11.38;;;;;;;2.03;64.38;97780.41;10386964;28;20059;-65
2021/11/28 01:04:31;;;;;;;16.13;10.65;;;;;;;1.97;64.76;97785.94;10386416;28;20497;-65
2021/11/28 01:09:40;;;;;;;23.27;12.30;;;;;;;1.89;64.45;97791.50;10386234;28;20067;-65
2021/11/28 01:14:53;;;;;;;20.60;12.27;;;;;;;1.78;64.56;97795.66;10370803;28;20056;-65
2021/11/28 01:19:55;;;;;;;19.90;10.38;;;;;;;1.77;64.95;97812.84;10385422;28;20057;-65
2021/11/28 01:24:57;;;;;;;25.48;13.95;;;;;;;1.75;64.81;97816.41;10385350;28;20049;-65
2021/11/28 01:29:59;;;;;;;20.58;11.93;;;;;;;1.49;65.16;97824.81;10385902;28;20055;-65
2021/11/28 01:35:00;;;;;;;26.05;13.48;;;;;;;1.55;65.21;97811.59;10385481;28;20053;-65
2021/11/28 01:40:08;;;;;;;18.80;11.48;;;;;;;1.52;65.38;97814.34;10385221;28;20049;-64
2021/11/28 01:45:16;;;;;;;18.80;11.88;;;;;;;1.43;66.03;97813.13;10384961;28;20409;-65
2021/11/28 01:50:18;;;;;;;24.77;13.32;;;;;;;1.51;65.67;97812.69;10383675;28;20060;-65
2021/11/28 01:55:26;;;;;;;19.92;12.55;;;;;;;1.57;65.50;97812.31;10384956;28;20049;-65
2021/11/28 02:00:34;;;;;;;22.25;14.05;;;;;;;1.61;65.46;97814.66;10383124;28;20045;-65
2021/11/28 02:05:36;;;;;;;25.38;13.90;;;;;;;1.59;65.60;97820.78;10384473;28;20041;-65
2021/11/28 02:10:38;;;;;;;28.80;15.90;;;;;;;1.64;65.73;97811.91;10383372;28;20057;-65
2021/11/28 02:15:40;;;;;;;29.52;15.38;;;;;;;1.74;65.44;97822.50;10383836;28;20492;-65
2021/11/28 02:20:46;;;;;;;21.70;13.13;;;;;;;1.87;65.63;97813.16;10385438;28;20052;-65
2021/11/28 02:25:50;;;;;;;23.55;13.15;;;;;;;1.94;65.35;97825.59;10383919;28;20140;-65
2021/11/28 02:30:52;;;;;;;22.67;12.82;;;;;;;1.86;65.45;97824.38;10384286;28;20049;-65
2021/11/28 02:35:54;;;;;;;20.55;12.55;;;;;;;1.83;65.49;97814.22;10391038;28;20131;-65
2021/11/28 02:40:56;;;;;;;25.67;12.27;;;;;;;1.84;65.53;97815.91;10391939;28;20087;-65
2021/11/28 02:46:07;;;;;;;21.60;13.20;;;;;;;1.95;65.42;97818.69;10387945;28;20597;-65
2021/11/28 02:51:10;;;;;;;21.40;11.98;;;;;;;1.98;65.36;97816.75;10405607;28;20053;-65
2021/11/28 02:56:12;;;;;;;21.80;11.32;;;;;;;2.03;65.21;97813.91;10388224;28;20064;-65
2021/11/28 03:01:18;;;;;;;20.40;11.73;;;;;;;2.00;65.36;97819.25;10387622;28;20490;-65
2021/11/28 03:06:20;;;;;;;20.02;12.13;;;;;;;2.09;65.25;97810.97;10396907;28;20049;-65
2021/11/28 03:11:22;;;;;;;23.25;14.00;;;;;;;2.15;65.17;97806.25;10385467;28;20071;-65
2021/11/28 03:16:25;;;;;;;22.13;12.73;;;;;;;2.11;64.93;97811.72;10396561;28;20068;-65
2021/11/28 03:21:30;;;;;;;23.27;13.88;;;;;;;2.11;65.24;97824.59;10397043;28;20046;-65
2021/11/28 03:26:42;;;;;;;21.13;12.30;;;;;;;2.12;65.43;97836.56;10395609;28;20050;-65
2021/11/28 03:31:56;;;;;;;27.15;14.45;;;;;;;2.15;65.19;97823.50;10395425;28;20049;-65
2021/11/28 03:36:59;;;;;;;28.38;15.13;;;;;;;2.14;65.08;97822.66;10394483;28;20056;-65
2021/11/28 03:42:06;;;;;;;21.73;13.68;;;;;;;2.09;65.04;97832.41;10395125;28;20140;-65
2021/11/28 03:47:07;;;;;;;23.58;13.63;;;;;;;2.03;65.16;97826.81;10393950;28;20439;-65
2021/11/28 03:52:09;;;;;;;21.83;13.35;;;;;;;2.00;65.20;97821.81;10393341;28;20096;-65
2021/11/28 03:57:11;;;;;;;18.45;12.18;;;;;;;1.93;65.46;97826.50;10396636;28;20057;-65
2021/11/28 04:02:13;;;;;;;21.30;12.63;;;;;;;1.93;65.66;97831.66;10395146;28;20467;-65
2021/11/28 04:07:15;;;;;;;26.95;14.30;;;;;;;1.94;65.48;97832.50;10389813;28;20292;-65
2021/11/28 04:12:16;;;;;;;17.35;12.43;;;;;;;1.91;65.38;97828.34;10386417;28;20046;-65
2021/11/28 04:17:18;;;;;;;23.38;14.57;;;;;;;1.94;65.62;97830.75;10389855;28;20510;-65
2021/11/28 04:22:20;;;;;;;22.98;13.30;;;;;;;1.97;65.38;97827.16;10387768;28;20131;-65
2021/11/28 04:27:22;;;;;;;19.05;11.73;;;;;;;1.95;65.50;97834.97;10386886;28;20399;-65
2021/11/28 04:32:24;;;;;;;24.98;14.60;;;;;;;1.94;65.55;97832.50;10387256;28;20172;-64
2021/11/28 04:37:27;;;;;;;21.88;13.23;;;;;;;1.97;65.78;97840.06;10387933;28;20138;-65
2021/11/28 04:42:29;;;;;;;24.35;14.35;;;;;;;2.03;65.70;97835.34;10388660;28;20124;-65
2021/11/28 04:47:31;;;;;;;23.48;13.60;;;;;;;2.06;65.45;97842.09;10388880;28;20052;-65
2021/11/28 04:52:33;;;;;;;25.80;15.40;;;;;;;2.09;65.56;97837.56;10388590;28;20597;-65
2021/11/28 04:57:34;;;;;;;21.00;12.88;;;;;;;2.08;65.63;97842.81;10387986;28;20054;-65
2021/11/28 05:02:36;;;;;;;21.17;13.57;;;;;;;2.12;65.47;97852.03;10387522;28;20045;-65
2021/11/28 05:07:38;;;;;;;20.63;13.70;;;;;;;2.13;65.33;97856.28;10387493;28;20053;-65
2021/11/28 05:12:41;;;;;;;20.02;14.05;;;;;;;2.15;65.22;97850.09;10386133;28;20053;-65
2021/11/28 05:17:43;;;;;;;21.73;13.57;;;;;;;2.13;65.30;97848.56;10386868;28;20123;-66
2021/11/28 05:22:44;;;;;;;21.80;14.60;;;;;;;2.16;65.46;97851.78;10386713;28;20490;-65
2021/11/28 05:27:47;;;;;;;23.48;15.18;;;;;;;2.22;65.33;97848.00;10385337;28;20158;-65
2021/11/28 05:32:49;;;;;;;23.17;14.77;;;;;;;2.24;65.28;97848.72;10386204;28;20163;-65
2021/11/28 05:37:50;;;;;;;27.23;15.68;;;;;;;2.23;65.40;97844.50;10383961;28;20140;-66
2021/11/28 05:42:53;;;;;;;25.05;14.85;;;;;;;2.23;65.31;97859.97;10386518;28;20186;-65
2021/11/28 05:47:56;;;;;;;23.98;14.25;;;;;;;2.23;65.52;97865.13;10386175;28;20045;-65
2021/11/28 05:52:58;;;;;;;26.70;15.70;;;;;;;2.27;65.51;97852.88;10386112;28;20139;-66
2021/11/28 05:58:00;;;;;;;23.10;14.02;;;;;;;2.15;65.53;97854.44;10384960;28;20510;-66
2021/11/28 06:03:02;;;;;;;24.85;14.90;;;;;;;2.19;65.52;97854.16;10385567;28;20350;-65
2021/11/28 06:08:04;;;;;;;22.85;14.77;;;;;;;2.23;65.48;97854.81;10385088;28;20057;-65
2021/11/28 06:13:06;;;;;;;23.58;14.55;;;;;;;2.14;65.33;97857.94;10385727;28;20050;-65
2021/11/28 06:18:09;;;;;;;23.33;15.35;;;;;;;1.96;65.99;97857.25;10384848;28;20049;-65
2021/11/28 06:23:11;;;;;;;26.10;16.67;;;;;;;2.01;65.78;97864.75;10383787;28;20049;-65
2021/11/28 06:28:12;;;;;;;23.75;15.77;;;;;;;2.00;65.85;97870.78;10385554;28;20072;-65
2021/11/28 06:33:15;;;;;;;26.33;15.63;;;;;;;2.03;66.07;97865.47;10383847;28;20061;-65
2021/11/28 06:38:17;;;;;;;28.38;17.13;;;;;;;2.02;65.96;97864.66;10385045;28;20041;-65
2021/11/28 06:43:19;;;;;;;21.80;13.57;;;;;;;2.11;65.90;97871.03;10385523;28;20802;-65
2021/11/28 06:48:20;;;;;;;25.55;14.77;;;;;;;2.20;65.51;97875.63;10384189;28;20053;-65
2021/11/28 06:53:22;;;;;;;22.33;14.60;;;;;;;2.11;65.66;97889.88;10384190;28;20053;-65
2021/11/28 06:58:24;;;;;;;20.65;12.30;;;;;;;2.10;65.72;97887.38;10382765;28;20045;-65
2021/11/28 07:03:26;;;;;;;29.02;18.35;;;;;;;2.11;65.76;97905.34;10384115;28;20045;-65
2021/11/28 07:08:28;;;;;;;28.52;16.08;;;;;;;2.09;66.03;97901.22;10384424;28;20041;-66
2021/11/28 07:13:30;;;;;;;22.83;15.43;;;;;;;2.23;65.95;97907.22;10384738;28;20071;-65
2021/11/28 07:18:32;;;;;;;21.83;15.50;;;;;;;2.29;65.87;97900.03;10382044;28;20057;-65
2021/11/28 07:23:33;;;;;;;24.05;15.75;;;;;;;2.37;65.89;97908.16;10391555;28;20073;-66
2021/11/28 07:28:36;;;;;;;32.58;20.45;;;;;;;2.41;65.54;97907.06;10391954;28;20084;-65
2021/11/28 07:33:38;;;;;;;32.30;21.88;;;;;;;2.50;65.67;97893.63;10391003;28;20144;-65
2021/11/28 07:38:40;;;;;;;35.10;21.33;;;;;;;2.51;65.38;97890.97;10389665;28;20060;-65
2021/11/28 07:43:42;;;;;;;27.13;19.10;;;;;;;2.46;65.52;97912.78;10387819;28;20049;-65
2021/11/28 07:48:44;;;;;;;29.15;19.58;;;;;;;2.50;65.66;97915.09;10390426;28;20050;-66
2021/11/28 07:53:47;;;;;;;34.67;20.30;;;;;;;2.69;65.54;97909.66;10389302;28;20058;-65
2021/11/28 07:58:50;;;;;;;26.13;16.80;;;;;;;2.91;65.31;97904.84;10389480;28;20046;-65
2021/11/28 08:03:52;;;;;;;28.65;19.45;;;;;;;2.97;64.82;97912.22;10390103;28;20065;-66
2021/11/28 08:08:53;;;;;;;26.35;17.52;;;;;;;2.92;65.07;97912.53;10390220;28;20490;-65
2021/11/28 08:13:55;;;;;;;26.23;17.40;;;;;;;2.97;64.89;97919.97;10387364;28;20059;-65
2021/11/28 08:18:57;;;;;;;33.33;22.55;;;;;;;3.05;64.85;97922.91;10389038;28;20060;-65
2021/11/28 08:24:06;;;;;;;33.90;21.23;;;;;;;3.00;65.03;97930.97;10389106;28;20075;-65
2021/11/28 08:29:08;;;;;;;31.67;22.70;;;;;;;3.07;65.15;97941.72;10387248;28;20049;-64
2021/11/28 08:34:12;;;;;;;33.88;23.40;;;;;;;3.05;65.28;97947.00;10388210;28;20579;-64
2021/11/28 08:39:14;;;;;;;32.65;19.95;;;;;;;3.19;65.09;97953.91;10388108;28;20417;-65
2021/11/28 08:44:16;;;;;;;27.17;19.27;;;;;;;3.35;64.88;97956.38;10385583;28;20136;-64
2021/11/28 08:49:18;;;;;;;28.80;20.10;;;;;;;3.36;64.39;97953.69;10388318;28;20593;-65
2021/11/28 08:54:20;;;;;;;24.88;17.77;;;;;;;3.25;64.75;97957.88;10386826;28;20164;-65
2021/11/28 08:59:21;;;;;;;27.80;19.40;;;;;;;3.25;64.75;97953.53;10386423;28;20052;-65
2021/11/28 09:04:24;;;;;;;32.42;21.52;;;;;;;3.29;64.84;97961.91;10387984;28;20053;-65
2021/11/28 09:09:25;;;;;;;32.75;21.98;;;;;;;3.26;64.97;97962.09;10385160;28;20132;-64
2021/11/28 09:14:27;;;;;;;24.35;17.13;;;;;;;3.27;65.03;97963.78;10386448;28;20609;-64
2021/11/28 09:19:40;;;;;;;34.22;22.20;;;;;;;3.49;64.73;97956.34;10384907;28;20216;-71
2021/11/28 09:24:41;;;;;;;33.53;22.33;;;;;;;3.37;64.65;97964.88;10385992;28;20505;-71
2021/11/28 09:29:45;;;;;;;35.65;21.77;;;;;;;3.15;65.05;97972.28;10386383;28;20451;-70
2021/11/28 09:34:48;;;;;;;34.85;22.00;;;;;;;3.18;65.21;97982.41;10385215;28;20156;-71
2021/11/28 09:39:49;;;;;;;36.83;22.85;;;;;;;3.44;65.18;97971.28;10386496;28;20140;-70
2021/11/28 09:44:52;;;;;;;32.35;21.90;;;;;;;3.58;64.95;97960.91;10384466;28;20103;-70
2021/11/28 09:49:56;;;;;;;36.97;23.15;;;;;;;3.90;64.63;97964.94;10386253;28;20045;-69
2021/11/28 09:55:00;;;;;;;30.48;21.50;;;;;;;4.10;63.98;97963.66;10384801;28;20049;-69
2021/11/28 10:00:05;;;;;;;38.47;24.27;;;;;;;4.06;63.87;97960.44;10400296;28;20131;-68
2021/11/28 10:05:12;;;;;;;33.67;22.27;;;;;;;4.16;63.90;97965.84;10385846;28;20060;-68
2021/11/28 10:10:17;;;;;;;33.95;23.45;;;;;;;4.23;63.68;97967.91;10385561;28;20516;-68
2021/11/28 10:15:21;;;;;;;32.30;23.48;;;;;;;4.20;63.95;97959.53;10385032;28;20041;-68
2021/11/28 10:20:26;;;;;;;31.80;22.77;;;;;;;4.01;64.45;97962.47;10385017;28;20053;-68
2021/11/28 10:25:30;;;;;;;36.72;26.00;;;;;;;4.07;64.39;97956.91;10385633;28;20132;-68
2021/11/28 10:30:41;;;;;;;27.55;19.65;;;;;;;4.02;64.89;97958.97;10381085;28;20481;-71
2021/11/28 10:36:05;;;;;;;35.90;23.85;;;;;;;3.91;64.54;97955.41;10382030;28;20080;-70
2021/11/28 10:41:23;;;;;;;35.25;23.90;;;;;;;3.98;64.57;97951.50;10385744;28;20055;-69
2021/11/28 10:46:28;;;;;;;35.78;23.05;;;;;;;3.99;64.80;97945.41;10383952;28;20569;-71
2021/11/28 10:51:32;;;;;;;28.23;20.48;;;;;;;3.99;64.89;97942.81;10384795;28;20085;-70
2021/11/28 10:56:33;;;;;;;23.83;17.83;;;;;;;4.12;64.73;97933.34;10392179;28;20045;-70
2021/11/28 11:01:39;;;;;;;23.50;16.33;;;;;;;4.04;64.59;97940.78;10392832;28;20047;-71
2021/11/28 11:06:41;;;;;;;22.40;15.50;;;;;;;4.08;64.51;97948.25;10391976;28;20053;-70
2021/11/28 11:11:43;;;;;;;19.50;13.60;;;;;;;4.24;64.43;97938.53;10392519;28;20057;-69
2021/11/28 11:16:48;;;;;;;20.50;14.70;;;;;;;4.19;64.01;97945.75;10391747;28;20057;-70
2021/11/28 11:22:12;;;;;;;17.60;13.30;;;;;;;4.23;64.14;97944.63;10392517;28;20045;-70
2021/11/28 11:27:35;;;;;;;20.20;14.10;;;;;;;4.45;63.65;97949.25;10391671;28;20577;-70
2021/11/28 11:32:55;;;;;;;19.10;13.85;;;;;;;4.63;63.08;97945.41;10390644;28;20056;-69
2021/11/28 11:38:06;;;;;;;19.80;14.88;;;;;;;4.76;62.95;97946.22;10393115;28;20063;-70
2021/11/28 11:43:09;;;;;;;18.65;15.23;;;;;;;4.86;63.15;97952.44;10390906;28;20061;-70
2021/11/28 11:48:11;;;;;;;20.20;13.80;;;;;;;4.80;62.79;97949.47;10390618;28;20312;-69
2021/11/28 11:53:14;;;;;;;21.73;16.17;;;;;;;4.98;62.91;97940.44;10390098;28;20149;-70
2021/11/28 11:58:39;;;;;;;19.77;14.23;;;;;;;5.06;62.34;97945.94;10390882;28;20055;-71
2021/11/28 12:03:50;;;;;;;20.48;14.40;;;;;;;5.04;62.69;97951.22;10388298;28;20133;-71
2021/11/28 12:08:54;;;;;;;18.83;14.63;;;;;;;5.14;62.64;97954.00;10389965;28;20061;-70
2021/11/28 12:13:58;;;;;;;18.02;13.73;;;;;;;5.23;62.05;97949.00;10390119;28;20064;-71
2021/11/28 12:19:00;;;;;;;16.15;12.40;;;;;;;4.98;61.95;97949.06;10390295;28;20478;-70
2021/11/28 12:24:09;;;;;;;18.20;12.88;;;;;;;4.85;61.95;97949.97;10389108;28;20524;-70
2021/11/28 12:29:13;;;;;;;18.08;13.27;;;;;;;4.83;62.32;97950.09;10389452;28;20079;-70
2021/11/28 12:34:16;;;;;;;16.90;13.38;;;;;;;5.02;62.06;97954.84;10389839;28;20057;-71
2021/11/28 12:39:18;;;;;;;19.33;14.10;;;;;;;5.28;62.00;97951.28;10389837;28;20049;-71
2021/11/28 12:44:25;;;;;;;15.52;12.88;;;;;;;5.07;61.47;97951.00;10389109;28;20045;-71
2021/11/28 12:49:35;;;;;;;17.60;13.65;;;;;;;5.25;61.88;97948.88;10387712;28;20461;-70
2021/11/28 12:55:02;;;;;;;20.58;14.38;;;;;;;5.29;61.38;97951.16;10388244;28;20061;-71
2021/11/28 13:00:22;;;;;;;20.58;15.10;;;;;;;5.30;62.20;97941.63;10386823;28;20064;-71
2021/11/28 13:05:36;;;;;;;17.48;14.25;;;;;;;5.33;62.21;97949.19;10388488;28;20529;-70
2021/11/28 13:10:43;;;;;;;18.30;14.27;;;;;;;5.28;62.10;97948.69;10388054;28;20601;-71
2021/11/28 13:15:48;;;;;;;16.52;13.52;;;;;;;5.17;62.05;97952.00;10387857;28;20064;-71
2021/11/28 13:20:54;;;;;;;18.00;13.45;;;;;;;5.19;62.11;97951.91;10387659;28;20555;-72
2021/11/28 13:25:58;;;;;;;18.50;14.63;;;;;;;5.31;61.69;97951.88;10386935;28;20084;-72
2021/11/28 13:31:08;;;;;;;20.58;15.25;;;;;;;5.30;62.07;97952.00;10387598;28;20095;-72
2021/11/28 13:36:10;;;;;;;17.93;14.37;;;;;;;5.42;61.87;97956.31;10387694;28;20296;-71
2021/11/28 13:41:21;;;;;;;21.35;14.90;;;;;;;5.36;61.07;97954.16;10386381;28;20049;-72
2021/11/28 13:46:32;;;;;;;18.00;14.68;;;;;;;5.16;61.98;97967.66;10387183;28;20583;-72
2021/11/28 13:51:53;;;;;;;19.83;14.90;;;;;;;5.28;62.14;97969.41;10386439;28;20053;-71
2021/11/28 13:57:00;;;;;;;;;;;;;;;4.90;62.96;97973.81;10386406;28;20045;-71
2021/11/28 14:02:16;;;;;;;24.48;15.02;;;;;;;4.98;62.81;97977.53;10386547;28;20008;-71
2021/11/28 14:07:25;;;;;;;19.83;14.73;;;;;;;5.05;62.83;97975.34;10385843;28;20482;-71
2021/11/28 14:12:29;;;;;;;20.33;14.20;;;;;;;4.98;62.83;97984.47;10386488;28;20060;-71
2021/11/28 14:17:31;;;;;;;19.58;14.73;;;;;;;4.92;63.34;97983.13;10385543;28;20049;-70
2021/11/28 14:22:44;;;;;;;22.10;16.92;;;;;;;4.95;63.44;97982.09;10386143;28;20058;-70
2021/11/28 14:28:17;;;;;;;24.85;18.25;;;;;;;4.84;63.30;97989.75;10385159;28;20159;-71
2021/11/28 14:33:21;;;;;;;21.10;15.80;;;;;;;4.89;63.48;97990.25;10385353;28;20151;-71
2021/11/28 14:38:25;;;;;;;20.35;14.77;;;;;;;4.85;63.64;97996.59;10385008;28;20131;-71
2021/11/28 14:43:34;;;;;;;21.55;14.93;;;;;;;4.82;63.77;97996.81;10385876;28;20053;-71
2021/11/28 14:48:44;;;;;;;21.63;15.05;;;;;;;4.76;63.84;98008.38;10385608;28;20080;-70
2021/11/28 14:53:47;;;;;;;22.08;15.93;;;;;;;4.74;64.02;98006.84;10384984;28;20067;-70
2021/11/28 14:58:48;;;;;;;20.02;14.43;;;;;;;4.70;64.04;98007.03;10385717;28;20045;-71
2021/11/28 15:04:11;;;;;;;22.92;14.50;;;;;;;4.61;64.08;98012.84;10385818;28;20072;-70
2021/11/28 15:09:17;;;;;;;19.73;14.27;;;;;;;4.60;64.39;98011.16;10383949;28;20140;-71
2021/11/28 15:14:19;;;;;;;21.63;16.52;;;;;;;4.59;64.26;98014.72;10383598;28;20407;-70
2021/11/28 15:19:25;;;;;;;22.98;16.23;;;;;;;4.57;64.42;98013.13;10384249;28;20066;-71
2021/11/28 15:24:27;;;;;;;22.13;17.13;;;;;;;4.53;64.35;98022.88;10385505;28;20491;-71
2021/11/28 15:29:29;;;;;;;23.77;17.27;;;;;;;4.50;64.51;98030.00;10383108;28;20132;-71
2021/11/28 15:34:31;;;;;;;19.65;15.30;;;;;;;4.44;64.39;98030.38;10384039;28;20045;-71
2021/11/28 15:39:35;;;;;;;19.05;13.93;;;;;;;4.29;64.21;98036.56;10384774;28;20520;-71
2021/11/28 15:44:36;;;;;;;17.83;13.40;;;;;;;4.16;65.09;98038.28;10392043;28;20069;-71
2021/11/28 15:49:38;;;;;;;19.88;14.48;;;;;;;4.22;64.95;98041.31;10391382;28;20045;-71
2021/11/28 15:54:40;;;;;;;30.40;22.33;;;;;;;4.21;64.86;98042.22;10391575;28;20489;-72
2021/11/28 15:59:46;;;;;;;33.97;23.02;;;;;;;4.16;65.04;98053.78;10391030;28;20671;-71
2021/11/28 16:04:47;;;;;;;24.05;18.30;;;;;;;4.14;64.95;98060.81;10390818;28;20408;-72
2021/11/28 16:09:49;;;;;;;25.63;17.17;;;;;;;4.08;65.22;98054.28;10391087;28;20060;-71
2021/11/28 16:14:51;;;;;;;25.70;18.33;;;;;;;4.02;65.57;98062.44;10390852;28;20060;-72
2021/11/28 16:19:53;;;;;;;26.00;18.98;;;;;;;3.99;65.47;98067.78;10389992;28;20155;-71
2021/11/28 16:24:56;;;;;;;25.00;18.92;;;;;;;4.00;65.46;98079.81;10390194;28;20059;-72
2021/11/28 16:29:57;;;;;;;26.98;18.83;;;;;;;4.01;65.57;98089.22;10388221;28;20060;-72
2021/11/28 16:35:00;;;;;;;25.30;18.52;;;;;;;3.99;65.40;98093.66;10389896;28;20063;-72
2021/11/28 16:40:04;;;;;;;22.52;15.52;;;;;;;3.94;65.49;98100.03;10389426;28;20050;-72
2021/11/28 16:45:06;;;;;;;20.42;15.27;;;;;;;3.90;65.91;98098.56;10389717;28;20136;-73
2021/11/28 16:50:11;;;;;;;21.48;16.48;;;;;;;3.81;65.86;98107.69;10387415;28;20053;-71
2021/11/28 16:55:14;;;;;;;18.05;13.75;;;;;;;3.76;65.99;98112.31;10389265;28;20682;-70
2021/11/28 17:00:16;;;;;;;16.60;12.75;;;;;;;3.72;65.96;98116.03;10388760;28;20536;-71
2021/11/28 17:05:18;;;;;;;19.02;14.80;;;;;;;3.73;65.88;98112.50;10388009;28;20057;-71
2021/11/28 17:10:21;;;;;;;23.70;17.27;;;;;;;3.81;65.66;98131.78;10387788;28;20084;-70
2021/11/28 17:15:24;;;;;;;23.15;16.15;;;;;;;3.76;65.96;98130.41;10388624;28;20057;-70
2021/11/28 17:20:26;;;;;;;18.00;14.40;;;;;;;3.81;65.84;98131.78;10387825;28;20088;-70
2021/11/28 17:25:47;;;;;;;15.95;11.63;;;;;;;3.66;65.49;98130.13;10387939;28;20049;-69
2021/11/28 17:30:53;;;;;;;19.73;12.80;;;;;;;3.64;65.60;98131.16;10384695;28;20127;-69
2021/11/28 17:35:55;;;;;;;20.20;13.95;;;;;;;3.64;65.54;98138.91;10385403;28;20085;-70
2021/11/28 17:40:57;;;;;;;16.40;12.40;;;;;;;3.56;65.37;98141.94;10377740;28;20079;-69
2021/11/28 17:45:59;;;;;;;18.58;13.68;;;;;;;3.61;65.44;98145.09;10379876;28;20132;-69
2021/11/28 17:51:01;;;;;;;17.98;13.38;;;;;;;3.66;65.35;98147.41;10377257;28;20312;-69
2021/11/28 17:56:04;;;;;;;19.42;15.02;;;;;;;3.66;65.39;98150.00;10383951;28;20386;-68
2021/11/28 18:01:06;;;;;;;18.83;15.35;;;;;;;3.65;65.39;98153.50;10384515;28;20072;-68
2021/11/28 18:06:08;;;;;;;23.33;16.27;;;;;;;3.61;65.29;98157.19;10383074;28;20345;-67
2021/11/28 18:11:10;;;;;;;20.58;15.60;;;;;;;3.52;65.33;98161.13;10383909;28;20883;-68
2021/11/28 18:16:12;;;;;;;19.77;15.30;;;;;;;3.57;65.45;98163.47;10381878;28;20166;-70
2021/11/28 18:21:14;;;;;;;24.17;17.45;;;;;;;3.55;65.52;98157.56;10382796;28;20064;-70
2021/11/28 18:26:18;;;;;;;22.15;16.42;;;;;;;3.50;65.83;98165.56;10384815;28;20141;-69
2021/11/28 18:31:19;;;;;;;25.27;16.95;;;;;;;3.45;65.43;98171.94;10381294;28;20293;-69
2021/11/28 18:36:21;;;;;;;24.20;17.17;;;;;;;3.43;65.53;98177.19;10384060;28;20129;-69
2021/11/28 18:41:26;;;;;;;25.58;17.63;;;;;;;3.49;65.41;98184.59;10382720;28;20054;-69
2021/11/28 18:46:28;;;;;;;27.75;17.27;;;;;;;3.52;65.37;98191.31;10383791;28;20042;-69
2021/11/28 18:51:30;;;;;;;26.10;19.42;;;;;;;3.47;65.46;98193.34;10383143;28;20045;-69
2021/11/28 18:56:32;;;;;;;35.30;26.50;;;;;;;3.48;65.47;98192.41;10383622;28;20049;-69
2021/11/28 19:01:35;;;;;;;40.00;27.63;;;;;;;3.50;65.38;98193.16;10381181;28;20055;-69
2021/11/28 19:06:37;;;;;;;33.03;23.65;;;;;;;3.53;65.48;98196.41;10383626;28;20144;-69
2021/11/28 19:11:39;;;;;;;26.23;18.98;;;;;;;3.52;65.34;98199.06;10382784;28;22032;-69
2021/11/28 19:16:40;;;;;;;24.55;17.83;;;;;;;3.36;65.38;98206.06;10388234;28;20057;-69
2021/11/28 19:21:42;;;;;;;27.58;19.88;;;;;;;3.40;65.46;98212.69;10388023;28;20163;-69
2021/11/28 19:26:44;;;;;;;31.60;20.38;;;;;;;3.34;65.83;98213.91;10391263;28;20572;-69
2021/11/28 19:31:46;;;;;;;45.90;27.73;;;;;;;3.32;65.71;98220.91;10390279;28;20494;-69
2021/11/28 19:36:49;;;;;;;37.88;24.63;;;;;;;3.31;65.72;98223.59;10390115;28;20071;-69
2021/11/28 19:41:51;;;;;;;60.80;36.03;;;;;;;3.28;65.48;98229.75;10387699;28;20056;-69
2021/11/28 19:46:53;;;;;;;35.28;21.92;;;;;;;3.20;65.37;98231.94;10384950;28;20079;-69
2021/11/28 19:51:55;;;;;;;37.40;24.10;;;;;;;3.16;65.29;98220.13;10388350;28;20049;-69
2021/11/28 19:56:58;;;;;;;42.08;28.95;;;;;;;3.16;65.22;98229.63;10389961;28;20139;-69
2021/11/28 20:01:59;;;;;;;33.28;21.80;;;;;;;3.07;65.27;98231.81;10389335;28;20064;-69
2021/11/28 20:07:01;;;;;;;31.60;22.27;;;;;;;3.24;65.08;98238.59;10389994;28;20474;-69
2021/11/28 20:12:03;;;;;;;36.08;25.35;;;;;;;3.21;64.83;98249.13;10388146;28;20052;-69
2021/11/28 20:17:05;;;;;;;37.33;25.60;;;;;;;3.27;65.17;98250.53;10387918;28;20049;-68
2021/11/28 20:22:07;;;;;;;38.20;25.42;;;;;;;3.30;65.03;98263.25;10388512;28;20502;-69
2021/11/28 20:27:09;;;;;;;39.17;26.00;;;;;;;3.27;65.16;98269.44;10388065;28;20957;-68
2021/11/28 20:32:11;;;;;;;34.95;24.55;;;;;;;3.31;65.07;98272.69;10387501;28;20417;-70
2021/11/28 20:37:13;;;;;;;33.95;21.35;;;;;;;3.31;64.95;98277.84;10388431;28;20429;-69
2021/11/28 20:42:15;;;;;;;32.67;22.73;;;;;;;3.34;65.05;98281.06;10387370;28;20338;-68
2021/11/28 20:47:38;;;;;;;33.63;22.63;;;;;;;3.34;65.08;98268.16;10381743;28;20057;-69
2021/11/28 20:52:40;;;;;;;38.67;24.27;;;;;;;3.33;64.98;98268.25;10387227;28;20046;-69
2021/11/28 20:57:42;;;;;;;39.17;24.05;;;;;;;3.32;65.06;98264.00;10385374;28;20136;-69
2021/11/28 21:02:52;;;;;;;47.45;30.60;;;;;;;3.23;64.77;98273.13;10387142;28;20545;-69
2021/11/28 21:07:56;;;;;;;39.13;25.88;;;;;;;3.16;65.02;98268.34;10386784;28;20358;-68
2021/11/28 21:12:58;;;;;;;59.75;34.95;;;;;;;3.23;64.83;98273.13;10386419;28;20502;-68
2021/11/28 21:18:00;;;;;;;104.95;55.08;;;;;;;3.09;64.93;98267.88;10387075;28;20057;-69
2021/11/28 21:23:02;;;;;;;62.15;36.20;;;;;;;3.16;65.10;98273.53;10385894;28;20464;-69
2021/11/28 21:28:09;;;;;;;76.32;42.47;;;;;;;3.09;65.15;98277.38;10386181;28;20050;-69
2021/11/28 21:33:12;;;;;;;55.63;32.60;;;;;;;2.97;65.13;98277.13;10385660;28;20609;-69
2021/11/28 21:38:15;;;;;;;42.40;26.90;;;;;;;3.10;64.84;98279.03;10378536;28;20048;-69
2021/11/28 21:43:18;;;;;;;47.90;29.58;;;;;;;3.11;64.85;98284.09;10386152;28;20136;-68
2021/11/28 21:48:24;;;;;;;42.45;26.85;;;;;;;3.20;64.65;98290.50;10382555;28;20413;-68
2021/11/28 21:53:26;;;;;;;40.33;26.55;;;;;;;3.14;64.90;98290.84;10383822;28;20502;-68
2021/11/28 21:58:27;;;;;;;44.17;28.08;;;;;;;3.02;64.99;98285.47;10386159;28;20049;-69
2021/11/28 22:03:29;;;;;;;45.30;28.17;;;;;;;3.20;64.85;98293.09;10385160;28;20185;-68
2021/11/28 22:08:31;;;;;;;44.40;28.48;;;;;;;3.24;64.69;98295.44;10385950;28;20059;-68
2021/11/28 22:13:33;;;;;;;43.38;28.35;;;;;;;3.13;64.75;98305.50;10384981;28;20075;-68
2021/11/28 22:18:35;;;;;;;45.60;28.90;;;;;;;3.19;64.87;98317.28;10384607;28;20060;-68
2021/11/28 22:23:38;;;;;;;43.15;27.90;;;;;;;3.32;65.18;98320.84;10384244;28;20493;-70
2021/11/28 22:28:40;;;;;;;49.17;29.60;;;;;;;3.38;65.04;98329.06;10384605;28;20053;-69
2021/11/28 22:33:42;;;;;;;48.15;29.13;;;;;;;3.35;65.02;98331.00;10384158;28;20145;-65
2021/11/28 22:38:44;;;;;;;52.17;30.65;;;;;;;3.25;65.03;98337.59;10384078;28;20069;-66
2021/11/28 22:43:45;;;;;;;37.50;24.60;;;;;;;2.95;65.60;98334.94;10382873;28;20054;-66
2021/11/28 22:48:47;;;;;;;37.33;24.38;;;;;;;2.95;65.86;98351.28;10386355;28;20424;-66
2021/11/28 22:53:49;;;;;;;37.05;24.42;;;;;;;2.91;65.63;98354.94;10392695;28;20053;-66
2021/11/28 22:58:51;;;;;;;37.95;25.42;;;;;;;2.93;65.86;98358.25;10389847;28;20045;-66
2021/11/28 23:03:59;;;;;;;42.42;25.08;;;;;;;3.01;65.70;98373.34;10392455;28;20060;-66
2021/11/28 23:09:02;;;;;;;37.05;23.48;;;;;;;2.93;65.37;98372.91;10390943;28;20071;-66
2021/11/28 23:14:05;;;;;;;31.75;23.48;;;;;;;2.88;65.22;98375.78;10392621;28;20053;-67
2021/11/28 23:19:08;;;;;;;37.20;24.92;;;;;;;2.93;65.52;98373.75;10391090;28;20588;-66
2021/11/28 23:24:10;;;;;;;36.35;23.08;;;;;;;2.85;65.52;98381.09;10392140;28;20063;-66